createdAt,value
2018-04-23T00:02:19.404Z,86.00
2018-04-23T00:04:50.421Z,86.00
2018-04-23T00:07:20.864Z,85.90
2018-04-23T00:09:51.687Z,86.70
2018-04-23T00:12:22.479Z,88.10
2018-04-23T00:14:53.121Z,88.90
2018-04-23T00:17:24.318Z,84.00
2018-04-23T00:19:55.870Z,83.10
2018-04-23T00:22:28.584Z,86.20
2018-04-23T00:25:00.260Z,86.20
2018-04-23T00:27:31.894Z,84.60
2018-04-23T00:30:03.213Z,82.50
2018-04-23T00:32:33.850Z,84.60
2018-04-23T00:35:04.967Z,86.00
2018-04-23T00:37:37.583Z,82.20
2018-04-23T00:40:09.079Z,82.20
2018-04-23T00:42:39.651Z,82.00
2018-04-23T00:45:11.677Z,82.00
2018-04-23T00:47:44.539Z,80.90
2018-04-23T00:50:16.063Z,80.40
2018-04-23T00:52:47.481Z,78.50
2018-04-23T00:55:19.755Z,74.80
2018-04-23T00:57:51.359Z,74.90
2018-04-23T01:00:22.753Z,74.80
2018-04-23T01:02:54.313Z,73.80
2018-04-23T01:05:25.876Z,73.30
2018-04-23T01:07:57.245Z,73.20
2018-04-23T01:10:28.005Z,73.70
2018-04-23T01:13:00.192Z,75.00
2018-04-23T01:15:31.509Z,75.00
2018-04-23T01:18:02.489Z,75.70
2018-04-23T01:20:33.828Z,77.90
2018-04-23T01:23:06.234Z,81.10
2018-04-23T01:25:38.489Z,80.40
2018-04-23T01:28:11.320Z,83.10
2018-04-23T01:30:42.387Z,83.10
2018-04-23T01:33:13.902Z,83.80
2018-04-23T01:35:45.161Z,84.60
2018-04-23T01:38:16.808Z,85.20
2018-04-23T01:40:47.468Z,85.60
2018-04-23T01:43:18.957Z,86.00
2018-04-23T01:45:50.255Z,86.30
2018-04-23T01:48:22.148Z,86.80
2018-04-23T01:50:54.282Z,87.70
2018-04-23T01:53:25.786Z,87.70
2018-04-23T01:55:58.358Z,88.60
2018-04-23T01:58:28.873Z,88.60
2018-04-23T02:00:59.374Z,88.80
2018-04-23T02:03:31.839Z,89.20
2018-04-23T02:06:02.895Z,89.20
2018-04-23T02:08:33.464Z,89.20
2018-04-23T02:11:04.169Z,89.20
2018-04-23T02:13:36.794Z,89.80
2018-04-23T02:16:08.084Z,89.50
2018-04-23T02:18:39.410Z,89.80
2018-04-23T02:21:10.461Z,89.80
2018-04-23T02:23:41.804Z,89.60
2018-04-23T02:26:14.841Z,90.00
2018-04-23T02:28:47.101Z,90.00
2018-04-23T02:31:18.674Z,90.00
2018-04-23T02:33:49.214Z,89.80
2018-04-23T02:36:20.365Z,89.70
2018-04-23T02:38:51.792Z,89.70
2018-04-23T02:41:22.567Z,89.70
2018-04-23T02:43:54.832Z,89.70
2018-04-23T02:46:26.310Z,89.50
2018-04-23T02:48:58.110Z,89.70
2018-04-23T02:51:29.403Z,89.90
2018-04-23T02:54:01.028Z,89.70
2018-04-23T02:56:33.308Z,89.60
2018-04-23T02:59:06.207Z,89.50
2018-04-23T03:01:36.777Z,89.40
2018-04-23T03:04:09.025Z,89.50
2018-04-23T03:06:40.705Z,89.10
2018-04-23T03:09:12.206Z,89.00
2018-04-23T03:11:43.478Z,89.00
2018-04-23T03:14:14.565Z,88.90
2018-04-23T03:16:46.147Z,88.90
2018-04-23T03:19:17.901Z,85.50
2018-04-23T03:21:48.268Z,82.70
2018-04-23T03:24:19.781Z,80.80
2018-04-23T03:26:51.312Z,80.80
2018-04-23T03:29:22.654Z,80.40
2018-04-23T03:31:56.533Z,79.70
2018-04-23T03:34:27.947Z,79.80
2018-04-23T03:36:58.841Z,79.60
2018-04-23T03:39:30.337Z,81.20
2018-04-23T03:42:02.092Z,80.50
2018-04-23T03:44:33.723Z,80.70
2018-04-23T03:47:04.821Z,81.10
2018-04-23T03:49:35.612Z,81.20
2018-04-23T03:52:08.266Z,81.40
2018-04-23T03:54:39.395Z,81.60
2018-04-23T03:57:10.632Z,81.50
2018-04-23T03:59:42.063Z,81.70
2018-04-23T04:02:13.524Z,81.60
2018-04-23T04:04:44.307Z,81.70
2018-04-23T04:07:15.892Z,81.50
2018-04-23T04:09:47.282Z,81.50
2018-04-23T04:12:28.722Z,81.50
2018-04-23T04:15:10.654Z,81.70
2018-04-23T04:21:03.731Z,81.10
2018-04-23T04:23:35.804Z,81.00
2018-04-23T04:26:06.931Z,81.00
2018-04-23T04:28:39.000Z,80.80
2018-04-23T04:31:09.744Z,80.80
2018-04-23T04:33:41.025Z,80.90
2018-04-23T04:36:12.440Z,81.00
2018-04-23T04:38:42.958Z,81.10
2018-04-23T04:41:14.969Z,81.20
2018-04-23T04:43:46.421Z,81.30
2018-04-23T04:46:17.345Z,81.30
2018-04-23T04:48:48.096Z,81.30
2018-04-23T04:51:19.822Z,81.70
2018-04-23T04:53:51.582Z,81.80
2018-04-23T04:56:23.664Z,81.80
2018-04-23T04:58:53.939Z,82.50
2018-04-23T05:01:25.520Z,81.80
2018-04-23T05:03:57.929Z,81.80
2018-04-23T05:06:30.746Z,82.00
2018-04-23T05:09:01.481Z,82.00
2018-04-23T05:11:32.827Z,82.00
2018-04-23T05:14:04.396Z,81.90
2018-04-23T05:16:35.075Z,82.00
2018-04-23T05:19:05.427Z,81.90
2018-04-23T05:21:36.092Z,82.10
2018-04-23T05:24:07.436Z,82.00
2018-04-23T05:26:39.405Z,82.00
2018-04-23T05:29:11.126Z,81.90
2018-04-23T05:31:41.785Z,81.80
2018-04-23T05:34:13.366Z,81.80
2018-04-23T05:36:45.156Z,81.70
2018-04-23T05:39:16.840Z,81.70
2018-04-23T05:41:47.982Z,81.70
2018-04-23T05:44:18.787Z,81.70
2018-04-23T05:46:51.904Z,81.50
2018-04-23T05:49:22.832Z,81.30
2018-04-23T05:51:53.375Z,81.60
2018-04-23T05:54:25.157Z,81.40
2018-04-23T05:56:57.216Z,81.50
2018-04-23T05:59:29.806Z,81.50
2018-04-23T06:02:02.481Z,81.50
2018-04-23T06:04:33.308Z,81.50
2018-04-23T06:07:05.068Z,81.20
2018-04-23T06:09:35.759Z,81.20
2018-04-23T06:12:07.020Z,81.30
2018-04-23T06:14:39.168Z,81.40
2018-04-23T06:17:10.841Z,81.30
2018-04-23T06:19:43.015Z,81.20
2018-04-23T06:22:13.792Z,81.20
2018-04-23T06:24:44.793Z,81.20
2018-04-23T06:27:16.857Z,81.20
2018-04-23T06:29:48.701Z,81.00
2018-04-23T06:32:20.491Z,81.10
2018-04-23T06:34:52.079Z,81.10
2018-04-23T06:37:24.005Z,80.70
2018-04-23T06:39:55.590Z,81.00
2018-04-23T06:42:26.480Z,80.70
2018-04-23T06:44:56.812Z,81.30
2018-04-23T06:47:27.994Z,80.40
2018-04-23T06:49:59.572Z,80.20
2018-04-23T06:52:30.339Z,80.10
2018-04-23T06:55:02.853Z,79.40
2018-04-23T06:57:33.510Z,79.50
2018-04-23T07:00:04.390Z,79.30
2018-04-23T07:02:36.098Z,79.10
2018-04-23T07:05:08.724Z,78.70
2018-04-23T07:07:40.311Z,78.50
2018-04-23T07:10:11.431Z,78.40
2018-04-23T07:12:43.351Z,78.20
2018-04-23T07:15:14.266Z,78.10
2018-04-23T07:17:46.572Z,77.30
2018-04-23T07:20:18.105Z,77.30
2018-04-23T07:22:49.585Z,76.60
2018-04-23T07:25:22.182Z,76.80
2018-04-23T07:27:53.707Z,76.20
2018-04-23T07:30:24.669Z,76.20
2018-04-23T07:32:56.255Z,76.00
2018-04-23T07:35:28.640Z,76.30
2018-04-23T07:37:59.806Z,76.20
2018-04-23T07:40:30.901Z,76.10
2018-04-23T07:43:01.715Z,75.70
2018-04-23T07:45:34.764Z,76.00
2018-04-23T07:48:06.223Z,76.10
2018-04-23T07:50:37.919Z,75.60
2018-04-23T07:53:10.267Z,75.20
2018-04-23T07:55:41.661Z,75.10
2018-04-23T07:58:12.016Z,75.20
2018-04-23T08:00:43.298Z,75.20
2018-04-23T08:03:15.450Z,75.60
2018-04-23T08:05:47.193Z,75.60
2018-04-23T08:08:18.633Z,75.50
2018-04-23T08:10:50.561Z,75.70
2018-04-23T08:13:21.305Z,75.60
2018-04-23T08:15:52.578Z,75.40
2018-04-23T08:18:24.366Z,75.40
2018-04-23T08:20:55.491Z,75.50
2018-04-23T08:23:28.749Z,75.60
2018-04-23T08:26:00.527Z,75.60
2018-04-23T08:28:32.081Z,75.60
2018-04-23T08:31:02.602Z,75.70
2018-04-23T08:33:34.695Z,75.50
2018-04-23T08:36:05.991Z,75.20
2018-04-23T08:38:39.135Z,75.40
2018-04-23T08:41:10.464Z,75.30
2018-04-23T08:43:41.817Z,76.10
2018-04-23T08:46:12.359Z,75.20
2018-04-23T08:48:45.430Z,74.40
2018-04-23T08:51:17.248Z,75.00
2018-04-23T08:53:50.490Z,75.90
2018-04-23T08:56:22.072Z,75.20
2018-04-23T08:58:53.283Z,75.00
2018-04-23T09:01:24.811Z,75.00
2018-04-23T09:03:56.416Z,75.10
2018-04-23T09:06:27.550Z,75.00
2018-04-23T09:08:59.920Z,75.00
2018-04-23T09:11:32.256Z,75.10
2018-04-23T09:14:03.766Z,75.00
2018-04-23T09:16:34.577Z,75.40
2018-04-23T09:19:05.778Z,75.40
2018-04-23T09:21:37.284Z,75.50
2018-04-23T09:24:08.483Z,75.10
2018-04-23T09:26:40.142Z,75.20
2018-04-23T09:29:11.231Z,75.20
2018-04-23T09:31:42.841Z,75.40
2018-04-23T09:34:14.812Z,75.30
2018-04-23T09:36:45.347Z,75.30
2018-04-23T09:39:16.283Z,75.50
2018-04-23T09:41:48.473Z,75.50
2018-04-23T09:44:20.894Z,75.30
2018-04-23T09:46:52.284Z,75.30
2018-04-23T09:49:24.031Z,75.10
2018-04-23T09:51:55.806Z,74.90
2018-04-23T09:54:26.503Z,75.10
2018-04-23T09:56:57.798Z,75.10
2018-04-23T09:59:28.711Z,75.20
2018-04-23T10:02:00.625Z,75.40
2018-04-23T10:04:32.445Z,75.50
2018-04-23T10:07:03.837Z,75.50
2018-04-23T10:09:36.505Z,75.60
2018-04-23T10:12:08.392Z,75.50
2018-04-23T10:14:40.433Z,74.70
2018-04-23T10:17:13.023Z,73.40
2018-04-23T10:19:45.526Z,73.20
2018-04-23T10:22:17.424Z,73.10
2018-04-23T10:24:49.018Z,73.50
2018-04-23T10:27:20.775Z,73.20
2018-04-23T10:29:51.983Z,73.30
2018-04-23T10:32:22.962Z,73.20
2018-04-23T10:34:53.452Z,73.50
2018-04-23T10:37:25.085Z,73.60
2018-04-23T10:39:55.769Z,73.60
2018-04-23T10:42:26.984Z,73.40
2018-04-23T10:44:57.820Z,73.40
2018-04-23T10:47:29.262Z,73.70
2018-04-23T10:49:59.916Z,74.00
2018-04-23T10:52:31.190Z,74.20
2018-04-23T10:55:03.060Z,74.90
2018-04-23T10:57:35.816Z,74.90
2018-04-23T11:00:07.523Z,75.70
2018-04-23T11:02:38.055Z,75.70
2018-04-23T11:05:08.896Z,75.90
2018-04-23T11:07:39.885Z,76.90
2018-04-23T11:10:11.429Z,77.30
2018-04-23T11:12:43.411Z,77.20
2018-04-23T11:15:15.081Z,77.90
2018-04-23T11:17:45.922Z,77.90
2018-04-23T11:20:16.497Z,78.20
2018-04-23T11:22:47.233Z,78.50
2018-04-23T11:25:18.723Z,78.50
2018-04-23T11:27:49.273Z,78.60
2018-04-23T11:30:20.024Z,78.80
2018-04-23T11:32:50.846Z,79.00
2018-04-23T11:35:22.855Z,79.20
2018-04-23T11:37:54.987Z,79.00
2018-04-23T11:40:26.997Z,79.00
2018-04-23T11:42:57.433Z,79.40
2018-04-23T11:45:28.924Z,80.00
2018-04-23T11:48:00.651Z,79.10
2018-04-23T11:50:32.689Z,79.10
2018-04-23T11:53:07.012Z,79.10
2018-04-23T11:55:37.526Z,79.10
2018-04-23T11:58:08.565Z,79.10
2018-04-23T12:00:39.492Z,79.10
2018-04-23T12:03:10.396Z,79.20
2018-04-23T12:05:42.688Z,79.20
2018-04-23T12:08:13.711Z,79.20
2018-04-23T12:10:45.535Z,78.90
2018-04-23T12:13:16.674Z,78.90
2018-04-23T12:15:47.565Z,78.60
2018-04-23T12:18:18.399Z,78.60
2018-04-23T12:20:49.221Z,78.60
2018-04-23T12:23:19.870Z,79.30
2018-04-23T12:25:51.313Z,79.60
2018-04-23T12:28:22.940Z,79.50
2018-04-23T12:30:55.026Z,74.90
2018-04-23T12:33:26.438Z,74.90
2018-04-23T12:36:00.556Z,71.60
2018-04-23T12:38:32.320Z,71.50
2018-04-23T12:41:03.923Z,70.30
2018-04-23T12:43:35.270Z,69.30
2018-04-23T12:46:06.725Z,68.20
2018-04-23T12:48:38.240Z,67.40
2018-04-23T12:51:08.905Z,66.20
2018-04-23T12:53:40.619Z,65.30
2018-04-23T12:56:12.191Z,65.20
2018-04-23T12:58:43.964Z,64.70
2018-04-23T13:01:15.370Z,63.90
2018-04-23T13:03:47.238Z,63.70
2018-04-23T13:06:18.166Z,63.20
2018-04-23T13:08:50.345Z,63.30
2018-04-23T13:11:22.088Z,63.30
2018-04-23T13:13:54.380Z,63.00
2018-04-23T13:16:25.994Z,63.00
2018-04-23T13:18:57.895Z,63.10
2018-04-23T13:21:28.963Z,63.10
2018-04-23T13:23:59.903Z,63.00
2018-04-23T13:26:32.235Z,62.70
2018-04-23T13:29:04.098Z,62.60
2018-04-23T13:31:36.457Z,62.40
2018-04-23T13:34:09.016Z,62.40
2018-04-23T13:36:41.482Z,62.40
2018-04-23T13:39:13.136Z,65.80
2018-04-23T13:41:45.469Z,64.40
2018-04-23T13:44:17.140Z,64.40
2018-04-23T13:46:50.059Z,64.50
2018-04-23T13:49:24.794Z,63.80
2018-04-23T13:51:56.528Z,63.30
2018-04-23T13:54:28.124Z,63.20
2018-04-23T13:57:00.660Z,62.20
2018-04-23T13:59:32.368Z,61.60
2018-04-23T14:02:03.356Z,61.80
2018-04-23T14:04:34.554Z,61.70
2018-04-23T14:07:06.670Z,62.30
2018-04-23T14:09:37.101Z,62.70
2018-04-23T14:12:09.389Z,63.10
2018-04-23T14:14:40.075Z,63.40
2018-04-23T14:17:11.384Z,64.00
2018-04-23T14:19:43.613Z,64.60
2018-04-23T14:22:15.903Z,64.60
2018-04-23T14:24:48.429Z,65.40
2018-04-23T14:27:20.416Z,65.40
2018-04-23T14:29:51.614Z,65.70
2018-04-23T14:32:23.731Z,66.00
2018-04-23T14:34:55.071Z,66.30
2018-04-23T14:37:27.747Z,66.60
2018-04-23T14:39:59.620Z,66.90
2018-04-23T14:42:31.026Z,67.20
2018-04-23T14:45:02.516Z,67.60
2018-04-23T14:47:34.114Z,68.10
2018-04-23T14:50:05.704Z,68.30
2018-04-23T14:52:36.696Z,68.70
2018-04-23T14:55:08.653Z,69.00
2018-04-23T14:57:41.960Z,68.90
2018-04-23T15:00:13.438Z,69.20
2018-04-23T15:02:44.728Z,69.60
2018-04-23T15:05:16.604Z,69.80
2018-04-23T15:07:49.307Z,70.10
2018-04-23T15:10:21.608Z,70.20
2018-04-23T15:22:16.735Z,66.00
2018-04-23T15:24:47.267Z,65.40
2018-04-23T15:27:18.979Z,64.60
2018-04-23T15:56:55.358Z,62.50
2018-04-23T15:59:27.232Z,61.00
2018-04-23T16:01:58.731Z,63.60
2018-04-23T16:04:29.458Z,63.60
2018-04-23T16:07:00.323Z,66.80
2018-04-23T16:09:31.861Z,69.10
2018-04-23T16:12:03.688Z,64.30
2018-04-23T16:14:34.557Z,64.30
2018-04-23T16:17:06.203Z,65.60
2018-04-23T16:19:37.924Z,65.70
2018-04-23T16:22:09.637Z,68.90
2018-04-23T16:24:40.383Z,71.00
2018-04-23T16:27:11.683Z,67.50
2018-04-23T16:29:43.650Z,65.70
2018-04-23T16:32:14.781Z,66.30
2018-04-23T16:34:45.797Z,66.30
2018-04-23T16:37:17.710Z,71.50
2018-04-23T16:39:48.907Z,71.40
2018-04-23T16:42:20.962Z,68.70
2018-04-23T16:44:51.964Z,66.40
2018-04-23T16:47:22.921Z,65.10
2018-04-23T16:49:55.580Z,71.70
2018-04-23T16:52:26.979Z,72.40
2018-04-23T16:54:57.745Z,73.10
2018-04-23T16:57:28.481Z,68.60
2018-04-23T16:59:59.808Z,66.90
2018-04-23T17:02:31.378Z,71.10
2018-04-23T17:05:02.112Z,71.10
2018-04-23T17:07:32.987Z,73.40
2018-04-23T17:10:05.114Z,71.00
2018-04-23T17:12:37.039Z,68.70
2018-04-23T17:15:07.508Z,67.20
2018-04-23T17:17:39.492Z,69.60
2018-04-23T17:20:10.718Z,72.40
2018-04-23T17:22:42.188Z,74.40
2018-04-23T17:25:13.991Z,70.80
2018-04-23T17:27:45.861Z,68.50
2018-04-23T17:30:16.732Z,67.00
2018-04-23T17:32:47.883Z,71.20
2018-04-23T17:35:18.684Z,73.60
2018-04-23T17:37:49.914Z,74.70
2018-04-23T17:40:21.148Z,71.00
2018-04-23T17:42:51.810Z,69.10
2018-04-23T17:45:23.551Z,72.00
2018-04-23T17:47:56.171Z,74.40
2018-04-23T17:50:27.830Z,72.00
2018-04-23T17:52:58.663Z,72.00
2018-04-23T17:55:29.399Z,69.70
2018-04-23T17:58:00.539Z,70.50
2018-04-23T18:00:32.798Z,73.20
2018-04-23T18:03:04.206Z,73.30
2018-04-23T18:05:36.398Z,73.30
2018-04-23T18:08:08.232Z,70.70
2018-04-23T18:10:39.168Z,70.40
2018-04-23T18:13:11.820Z,75.80
2018-04-23T18:15:42.725Z,75.80
2018-04-23T18:18:15.015Z,73.50
2018-04-23T18:20:45.926Z,71.20
2018-04-23T18:23:17.282Z,70.50
2018-04-23T18:25:48.353Z,74.00
2018-04-23T18:28:19.313Z,76.90
2018-04-23T18:30:50.163Z,74.50
2018-04-23T18:33:21.983Z,70.90
2018-04-23T18:35:53.066Z,70.90
2018-04-23T18:38:23.456Z,74.60
2018-04-23T18:40:55.982Z,76.60
2018-04-23T18:43:26.916Z,75.40
2018-04-23T18:45:58.356Z,72.00
2018-04-23T18:48:29.683Z,71.00
2018-04-23T18:51:02.870Z,74.50
2018-04-23T18:53:33.917Z,76.80
2018-04-23T18:56:04.941Z,76.90
2018-04-23T18:58:35.547Z,72.80
2018-04-23T19:01:07.667Z,72.50
2018-04-23T19:03:39.453Z,75.50
2018-04-23T19:06:10.524Z,77.80
2018-04-23T19:08:41.249Z,75.50
2018-04-23T19:11:12.148Z,72.90
2018-04-23T19:13:42.665Z,72.80
2018-04-23T19:16:14.205Z,78.20
2018-04-23T19:18:45.398Z,78.30
2018-04-23T19:21:16.548Z,76.50
2018-04-23T19:23:48.830Z,74.10
2018-04-23T19:26:19.856Z,74.10
2018-04-23T19:28:51.081Z,77.20
2018-04-23T19:31:21.577Z,79.30
2018-04-23T19:33:52.393Z,76.90
2018-04-23T19:36:24.417Z,74.20
2018-04-23T19:38:55.435Z,74.90
2018-04-23T19:41:27.233Z,80.50
2018-04-23T19:43:58.753Z,80.50
2018-04-23T19:46:29.156Z,77.00
2018-04-23T19:48:59.871Z,74.00
2018-04-23T19:51:32.287Z,75.60
2018-04-23T19:54:03.115Z,78.00
2018-04-23T19:56:34.768Z,78.50
2018-04-23T19:59:05.555Z,78.50
2018-04-23T20:01:37.129Z,81.30
2018-04-23T20:04:08.241Z,82.00
2018-04-23T20:06:40.242Z,78.90
2018-04-23T20:09:11.137Z,75.30
2018-04-23T20:11:42.330Z,75.20
2018-04-23T20:14:13.897Z,80.00
2018-04-23T20:16:46.007Z,77.90
2018-04-23T20:19:18.333Z,77.80
2018-04-23T20:21:49.817Z,75.30
2018-04-23T20:24:21.073Z,75.30
2018-04-23T20:26:53.511Z,77.90
2018-04-23T20:29:25.603Z,78.70
2018-04-23T20:31:56.453Z,78.70
2018-04-23T20:34:27.176Z,81.40
2018-04-23T20:36:59.369Z,82.60
2018-04-23T20:39:31.047Z,79.70
2018-04-23T20:42:03.945Z,75.80
2018-04-23T20:44:35.671Z,78.90
2018-04-23T20:47:06.994Z,78.90
2018-04-23T20:49:38.144Z,80.90
2018-04-23T20:52:09.708Z,77.20
2018-04-23T20:54:40.439Z,76.40
2018-04-23T20:57:12.148Z,80.60
2018-04-23T20:59:42.820Z,80.60
2018-04-23T21:02:15.145Z,82.30
2018-04-23T21:04:46.192Z,80.60
2018-04-23T21:07:18.227Z,83.00
2018-04-23T21:09:49.502Z,84.00
2018-04-23T21:12:20.581Z,80.90
2018-04-23T21:14:51.359Z,77.70
2018-04-23T21:17:22.982Z,80.00
2018-04-23T21:19:54.996Z,80.00
2018-04-23T21:22:25.764Z,81.80
2018-04-23T21:24:56.875Z,80.20
2018-04-23T21:27:28.378Z,82.70
2018-04-23T21:29:58.767Z,83.90
2018-04-23T21:32:32.364Z,78.30
2018-04-23T21:35:03.250Z,78.20
2018-04-23T21:37:34.272Z,75.80
2018-04-23T21:40:06.204Z,78.90
2018-04-23T21:42:38.255Z,81.90
2018-04-23T21:45:09.606Z,81.40
2018-04-23T21:47:40.891Z,83.40
2018-04-23T21:50:12.728Z,83.40
2018-04-23T21:52:44.291Z,79.80
2018-04-23T21:55:14.813Z,79.80
2018-04-23T21:57:46.901Z,80.70
2018-04-23T22:00:17.424Z,80.70
2018-04-23T22:02:47.911Z,82.90
2018-04-23T22:05:19.773Z,82.70
2018-04-23T22:07:51.535Z,84.60
2018-04-23T22:10:22.919Z,85.40
2018-04-23T22:12:54.972Z,80.80
2018-04-23T22:15:27.477Z,78.00
2018-04-23T22:17:58.567Z,77.90
2018-04-23T22:20:29.550Z,80.80
2018-04-23T22:23:00.747Z,82.70
2018-04-23T22:25:32.555Z,82.60
2018-04-23T22:28:04.721Z,82.60
2018-04-23T22:30:35.649Z,84.80
2018-04-23T22:33:09.465Z,85.50
2018-04-23T22:35:40.314Z,81.10
2018-04-23T22:38:10.719Z,78.60
2018-04-23T22:40:42.088Z,81.30
2018-04-23T22:43:13.788Z,83.20
2018-04-23T22:45:45.389Z,83.30
2018-04-23T22:48:17.150Z,85.00
2018-04-23T22:50:48.143Z,85.00
2018-04-23T22:53:19.742Z,85.50
2018-04-23T22:55:50.433Z,81.40
2018-04-23T22:58:21.711Z,78.20
2018-04-23T23:00:53.005Z,81.30
2018-04-23T23:03:24.363Z,83.40
2018-04-23T23:05:55.871Z,83.80
2018-04-23T23:08:26.492Z,83.70
2018-04-23T23:10:57.634Z,85.40
2018-04-23T23:13:28.569Z,85.00
2018-04-23T23:16:00.225Z,82.20
2018-04-23T23:18:31.637Z,79.60
2018-04-23T23:21:02.932Z,74.90
2018-04-23T23:23:34.710Z,77.10
2018-04-23T23:26:05.951Z,76.10
2018-04-23T23:28:38.012Z,75.50
2018-04-23T23:31:09.770Z,75.40
2018-04-23T23:33:41.209Z,75.20
2018-04-23T23:36:12.399Z,75.20
2018-04-23T23:38:44.658Z,75.80
2018-04-23T23:41:16.913Z,76.10
2018-04-23T23:43:48.380Z,76.00
2018-04-23T23:46:21.960Z,76.80
2018-04-23T23:48:53.431Z,76.70
2018-04-23T23:51:25.021Z,77.80
2018-04-23T23:53:57.425Z,78.60
2018-04-23T23:56:28.808Z,78.50
2018-04-23T23:59:01.393Z,79.30
